createdAt,value
2023-01-10T00:01:18.677Z,0.32
2023-01-10T00:03:35.689Z,0.20
2023-01-10T00:05:53.751Z,0.30
2023-01-10T00:08:11.848Z,0.30
2023-01-10T00:10:31.536Z,0.40
2023-01-10T00:12:48.869Z,0.30
2023-01-10T00:15:06.050Z,0.30
2023-01-10T00:17:23.290Z,0.30
2023-01-10T00:19:40.189Z,0.30
2023-01-10T00:21:57.219Z,0.32
2023-01-10T00:24:14.585Z,0.40
2023-01-10T00:26:32.858Z,0.40
2023-01-10T00:28:49.936Z,0.50
2023-01-10T00:31:07.825Z,0.52
2023-01-10T00:33:24.915Z,0.55
2023-01-10T00:35:42.173Z,0.50
2023-01-10T00:37:59.142Z,0.38
2023-01-10T00:40:16.091Z,0.60
2023-01-10T00:42:33.051Z,0.50
2023-01-10T00:44:50.980Z,0.57
2023-01-10T00:47:08.113Z,0.70
2023-01-10T00:49:27.346Z,0.90
2023-01-10T00:51:44.669Z,0.70
2023-01-10T00:54:01.739Z,0.98
2023-01-10T00:56:18.780Z,1.25
2023-01-10T00:58:36.119Z,1.35
2023-01-10T01:00:53.101Z,1.20
2023-01-10T01:03:10.502Z,1.50
2023-01-10T01:05:27.540Z,1.42
2023-01-10T01:07:44.520Z,1.25
2023-01-10T01:10:01.618Z,1.48
2023-01-10T01:12:18.551Z,1.48
2023-01-10T01:14:35.549Z,1.40
2023-01-10T01:16:53.585Z,1.63
2023-01-10T01:19:10.585Z,1.60
2023-01-10T01:21:27.895Z,2.05
2023-01-10T01:23:44.907Z,1.70
2023-01-10T01:26:01.965Z,2.03
2023-01-10T01:28:19.202Z,1.63
2023-01-10T01:30:36.538Z,2.10
2023-01-10T01:32:53.467Z,1.90
2023-01-10T01:35:10.512Z,1.77
2023-01-10T01:37:28.963Z,1.60
2023-01-10T01:39:47.021Z,1.70
2023-01-10T01:42:04.099Z,1.60
2023-01-10T01:44:23.134Z,1.42
2023-01-10T01:46:40.459Z,1.63
2023-01-10T01:48:57.413Z,1.60
2023-01-10T01:51:14.481Z,1.83
2023-01-10T01:53:31.525Z,1.88
2023-01-10T01:55:48.906Z,1.90
2023-01-10T01:58:07.128Z,2.05
2023-01-10T02:00:24.149Z,1.80
2023-01-10T02:02:46.019Z,1.85
2023-01-10T02:05:05.608Z,2.10
2023-01-10T02:07:22.617Z,2.28
2023-01-10T02:09:39.793Z,2.15
2023-01-10T02:11:56.824Z,2.40
2023-01-10T02:14:13.867Z,2.17
2023-01-10T02:16:30.816Z,2.05
2023-01-10T02:18:48.103Z,2.80
2023-01-10T02:21:04.998Z,2.90
2023-01-10T02:23:22.264Z,2.70
2023-01-10T02:25:39.497Z,2.60
2023-01-10T02:27:57.767Z,2.90
2023-01-10T02:30:14.772Z,3.03
2023-01-10T02:32:43.756Z,2.83
2023-01-10T02:35:05.189Z,2.83
2023-01-10T02:37:22.193Z,3.10
2023-01-10T02:39:40.184Z,3.20
2023-01-10T02:41:57.224Z,3.20
2023-01-10T02:44:16.693Z,2.75
2023-01-10T02:46:35.110Z,3.00
2023-01-10T02:48:52.166Z,3.65
2023-01-10T02:51:09.203Z,3.30
2023-01-10T02:53:26.732Z,3.50
2023-01-10T02:55:44.106Z,3.78
2023-01-10T02:58:01.112Z,3.75
2023-01-10T03:00:19.195Z,3.70
2023-01-10T03:02:36.472Z,3.80
2023-01-10T03:04:53.575Z,4.15
2023-01-10T03:07:10.573Z,3.80
2023-01-10T03:09:27.830Z,4.05
2023-01-10T03:11:44.820Z,3.72
2023-01-10T03:14:03.006Z,3.50
2023-01-10T03:16:20.341Z,3.70
2023-01-10T03:18:37.408Z,3.45
2023-01-10T03:20:55.595Z,3.38
2023-01-10T03:23:12.438Z,3.00
2023-01-10T03:25:30.621Z,3.45
2023-01-10T03:27:47.864Z,3.55
2023-01-10T03:30:04.858Z,3.88
2023-01-10T03:32:23.139Z,3.58
2023-01-10T03:34:40.137Z,3.58
2023-01-10T03:36:58.203Z,3.38
2023-01-10T03:39:15.108Z,3.95
2023-01-10T03:41:32.720Z,3.67
2023-01-10T03:43:49.704Z,3.40
2023-01-10T03:46:06.741Z,3.40
2023-01-10T03:48:24.923Z,3.55
2023-01-10T03:50:42.152Z,3.00
2023-01-10T03:53:01.707Z,3.60
2023-01-10T03:55:19.008Z,2.45
2023-01-10T03:57:36.074Z,3.25
2023-01-10T03:59:53.420Z,3.10
2023-01-10T04:02:10.451Z,3.53
2023-01-10T04:04:27.724Z,3.72
2023-01-10T04:06:44.984Z,3.03
2023-01-10T04:09:02.964Z,3.25
2023-01-10T04:11:20.243Z,3.40
2023-01-10T04:13:37.834Z,3.42
2023-01-10T04:15:55.086Z,3.28
2023-01-10T04:18:12.068Z,2.95
2023-01-10T04:20:29.122Z,3.10
2023-01-10T04:22:46.446Z,3.47
2023-01-10T04:25:03.443Z,2.95
2023-01-10T04:27:20.780Z,3.00
2023-01-10T04:29:40.505Z,2.75
2023-01-10T04:31:57.805Z,3.30
2023-01-10T04:34:14.731Z,3.42
2023-01-10T04:36:32.651Z,3.17
2023-01-10T04:38:49.873Z,2.75
2023-01-10T04:41:06.919Z,2.78
2023-01-10T04:43:24.165Z,3.00
2023-01-10T04:45:41.458Z,2.92
2023-01-10T04:47:59.855Z,3.25
2023-01-10T04:50:16.771Z,2.55
2023-01-10T04:52:34.714Z,2.85
2023-01-10T04:54:52.005Z,2.88
2023-01-10T04:57:08.926Z,2.60
2023-01-10T04:59:26.008Z,3.10
2023-01-10T05:01:43.604Z,2.50
2023-01-10T05:04:00.978Z,2.78
2023-01-10T05:06:20.716Z,3.15
2023-01-10T05:08:38.014Z,2.58
2023-01-10T05:10:55.310Z,2.65
2023-01-10T05:13:12.581Z,2.45
2023-01-10T05:15:29.898Z,2.78
2023-01-10T05:17:46.945Z,2.53
2023-01-10T05:20:04.319Z,2.60
2023-01-10T05:22:21.324Z,2.30
2023-01-10T05:24:39.174Z,2.97
2023-01-10T05:26:56.481Z,2.95
2023-01-10T05:29:13.404Z,2.80
2023-01-10T05:31:31.535Z,2.53
2023-01-10T05:33:48.851Z,2.70
2023-01-10T05:36:07.178Z,2.97
2023-01-10T05:38:24.447Z,2.72
2023-01-10T05:40:42.765Z,2.80
2023-01-10T05:43:01.355Z,2.85
2023-01-10T05:45:18.724Z,2.70
2023-01-10T05:47:35.732Z,2.58
2023-01-10T05:49:52.806Z,2.80
2023-01-10T05:52:10.170Z,2.80
2023-01-10T05:54:28.176Z,2.53
2023-01-10T05:56:45.436Z,2.70
2023-01-10T05:59:11.835Z,2.15
2023-01-10T06:01:40.640Z,4.15
2023-01-10T06:03:57.992Z,3.60
2023-01-10T06:06:15.001Z,2.80
2023-01-10T06:08:32.246Z,2.58
2023-01-10T06:10:49.811Z,3.55
2023-01-10T06:13:08.159Z,2.55
2023-01-10T06:15:25.166Z,9.23
2023-01-10T06:17:42.429Z,3.50
2023-01-10T06:20:01.476Z,4.20
2023-01-10T06:22:20.235Z,3.80
2023-01-10T06:24:38.332Z,3.28
2023-01-10T06:26:55.650Z,3.28
2023-01-10T06:29:12.703Z,3.30
2023-01-10T06:31:30.336Z,3.08
2023-01-10T06:33:48.428Z,2.85
2023-01-10T06:36:05.459Z,2.63
2023-01-10T06:38:22.495Z,2.90
2023-01-10T06:40:39.745Z,2.88
2023-01-10T06:42:56.968Z,2.92
2023-01-10T06:45:13.877Z,4.65
2023-01-10T06:47:30.832Z,2.78
2023-01-10T06:49:48.875Z,2.70
2023-01-10T06:52:05.986Z,2.92
2023-01-10T06:54:23.490Z,2.95
2023-01-10T06:56:40.505Z,6.13
2023-01-10T06:58:57.843Z,4.57
2023-01-10T07:01:15.161Z,4.30
2023-01-10T07:03:32.499Z,3.70
2023-01-10T07:05:49.855Z,3.58
2023-01-10T07:08:07.161Z,3.75
2023-01-10T07:10:24.225Z,4.47
2023-01-10T07:12:41.218Z,3.20
2023-01-10T07:14:58.593Z,5.63
2023-01-10T07:17:16.149Z,3.75
2023-01-10T07:19:33.521Z,3.50
2023-01-10T07:21:50.642Z,3.20
2023-01-10T07:24:07.649Z,3.20
2023-01-10T07:26:24.945Z,3.28
2023-01-10T07:28:43.144Z,2.42
2023-01-10T07:31:00.492Z,3.05
2023-01-10T07:33:17.459Z,2.10
2023-01-10T07:35:35.384Z,2.80
2023-01-10T07:37:52.571Z,3.60
2023-01-10T07:40:10.747Z,2.78
2023-01-10T07:42:28.055Z,3.03
2023-01-10T07:44:45.375Z,2.50
2023-01-10T07:47:02.297Z,2.55
2023-01-10T07:49:19.307Z,2.58
2023-01-10T07:51:36.221Z,2.55
2023-01-10T07:53:54.297Z,2.30
2023-01-10T07:56:11.592Z,2.55
2023-01-10T07:58:28.870Z,3.03
2023-01-10T08:00:45.868Z,2.38
2023-01-10T08:03:02.988Z,2.25
2023-01-10T08:05:20.399Z,2.55
2023-01-10T08:07:37.668Z,2.83
2023-01-10T08:09:54.908Z,2.80
2023-01-10T08:12:12.011Z,2.38
2023-01-10T08:14:29.358Z,2.88
2023-01-10T08:16:46.439Z,2.45
2023-01-10T08:19:03.446Z,2.45
2023-01-10T08:21:20.802Z,2.67
2023-01-10T08:23:39.230Z,2.40
2023-01-10T08:25:56.542Z,2.72
2023-01-10T08:28:13.544Z,2.53
2023-01-10T08:30:31.617Z,3.00
2023-01-10T08:32:48.484Z,3.10
2023-01-10T08:35:05.708Z,3.10
2023-01-10T08:37:24.053Z,5.15
2023-01-10T08:39:41.411Z,4.97
2023-01-10T08:41:58.690Z,4.22
2023-01-10T08:44:16.639Z,3.42
2023-01-10T08:46:34.003Z,2.95
2023-01-10T08:48:51.377Z,3.47
2023-01-10T08:51:08.454Z,3.28
2023-01-10T08:53:25.533Z,2.90
2023-01-10T08:55:42.823Z,3.30
2023-01-10T08:58:00.528Z,3.00
2023-01-10T09:00:19.234Z,2.92
2023-01-10T09:02:39.061Z,3.35
2023-01-10T09:04:57.608Z,3.55
2023-01-10T09:07:15.743Z,3.42
2023-01-10T09:09:33.643Z,7.78
2023-01-10T09:11:50.980Z,5.00
2023-01-10T09:14:09.311Z,5.32
2023-01-10T09:16:26.525Z,6.00
2023-01-10T09:18:45.187Z,18.83
2023-01-10T09:21:02.248Z,7.85
2023-01-10T09:23:19.197Z,6.05
2023-01-10T09:25:36.509Z,3.95
2023-01-10T09:27:53.742Z,4.00
2023-01-10T09:30:11.069Z,3.47
2023-01-10T09:32:28.473Z,4.40
2023-01-10T09:34:45.507Z,3.95
2023-01-10T09:37:02.480Z,3.60
2023-01-10T09:39:19.503Z,3.17
2023-01-10T09:41:36.556Z,3.95
2023-01-10T09:43:53.853Z,4.10
2023-01-10T09:46:10.870Z,3.42
2023-01-10T09:48:28.220Z,4.28
2023-01-10T09:50:45.143Z,3.40
2023-01-10T09:53:02.486Z,4.07
2023-01-10T09:55:19.526Z,3.45
2023-01-10T09:57:36.655Z,3.13
2023-01-10T09:59:54.003Z,3.38
2023-01-10T10:02:11.121Z,3.50
2023-01-10T10:04:28.107Z,3.40
2023-01-10T10:06:49.276Z,3.83
2023-01-10T10:09:06.420Z,4.30
2023-01-10T10:11:23.739Z,4.45
2023-01-10T10:13:40.763Z,3.70
2023-01-10T10:15:59.852Z,3.35
2023-01-10T10:18:17.078Z,4.38
2023-01-10T10:20:34.393Z,6.45
2023-01-10T10:22:51.391Z,4.90
2023-01-10T10:25:08.636Z,5.38
2023-01-10T10:27:25.891Z,4.53
2023-01-10T10:29:44.233Z,5.10
2023-01-10T10:32:01.228Z,4.97
2023-01-10T10:34:19.223Z,4.63
2023-01-10T10:36:36.270Z,4.07
2023-01-10T10:38:53.612Z,4.20
2023-01-10T10:41:10.642Z,3.05
2023-01-10T10:43:28.834Z,3.85
2023-01-10T10:45:46.148Z,4.43
2023-01-10T10:48:03.203Z,3.53
2023-01-10T10:50:20.242Z,3.50
2023-01-10T10:52:37.215Z,3.70
2023-01-10T10:54:54.233Z,3.50
2023-01-10T10:57:11.866Z,3.58
2023-01-10T10:59:29.042Z,3.95
2023-01-10T11:01:46.374Z,4.50
2023-01-10T11:04:03.376Z,8.93
2023-01-10T11:06:20.768Z,5.20
2023-01-10T11:08:37.793Z,3.67
2023-01-10T11:10:54.795Z,3.60
2023-01-10T11:13:11.720Z,3.45
2023-01-10T11:15:28.820Z,3.70
2023-01-10T11:17:46.825Z,3.22
2023-01-10T11:20:03.993Z,3.38
2023-01-10T11:22:21.294Z,3.20
2023-01-10T11:24:39.370Z,3.20
2023-01-10T11:26:56.456Z,3.05
2023-01-10T11:29:13.403Z,3.40
2023-01-10T11:31:30.645Z,3.72
2023-01-10T11:33:49.872Z,3.78
2023-01-10T11:36:07.062Z,3.50
2023-01-10T11:38:24.045Z,3.80
2023-01-10T11:40:41.047Z,4.45
2023-01-10T11:42:59.383Z,3.33
2023-01-10T11:45:16.801Z,3.42
2023-01-10T11:47:37.989Z,3.55
2023-01-10T11:49:58.661Z,3.42
2023-01-10T11:52:15.956Z,3.47
2023-01-10T11:54:33.011Z,3.40
2023-01-10T11:56:49.999Z,3.35
2023-01-10T11:59:07.954Z,3.17
2023-01-10T12:01:25.114Z,3.83
2023-01-10T12:03:42.213Z,3.63
2023-01-10T12:06:00.361Z,4.47
2023-01-10T12:08:18.177Z,4.40
2023-01-10T12:10:35.519Z,3.78
2023-01-10T12:12:52.459Z,4.45
2023-01-10T12:15:10.767Z,3.45
2023-01-10T12:17:27.823Z,3.50
2023-01-10T12:19:44.998Z,3.33
2023-01-10T12:22:02.098Z,4.20
2023-01-10T12:24:19.430Z,3.90
2023-01-10T12:26:36.397Z,4.82
2023-01-10T12:28:54.419Z,4.20
2023-01-10T12:31:11.409Z,4.43
2023-01-10T12:33:29.476Z,3.88
2023-01-10T12:35:47.613Z,4.00
2023-01-10T12:38:04.561Z,3.88
2023-01-10T12:40:21.803Z,3.63
2023-01-10T12:42:38.844Z,4.65
2023-01-10T12:44:56.052Z,5.20
2023-01-10T12:47:13.780Z,5.03
2023-01-10T12:49:31.183Z,11.07
2023-01-10T12:51:48.255Z,6.68
2023-01-10T12:54:05.256Z,5.78
2023-01-10T12:56:22.431Z,6.00
2023-01-10T12:58:39.397Z,5.97
2023-01-10T13:00:56.439Z,5.68
2023-01-10T13:03:13.705Z,5.35
2023-01-10T13:05:30.785Z,5.47
2023-01-10T13:07:48.831Z,6.45
2023-01-10T13:10:05.896Z,5.90
2023-01-10T13:12:23.148Z,5.38
2023-01-10T13:14:40.132Z,5.10
2023-01-10T13:16:57.523Z,5.07
2023-01-10T13:19:14.528Z,5.75
2023-01-10T13:21:31.531Z,5.75
2023-01-10T13:23:48.608Z,5.82
2023-01-10T13:26:05.612Z,5.60
2023-01-10T13:28:22.883Z,5.03
2023-01-10T13:30:40.978Z,5.80
2023-01-10T13:32:58.326Z,4.90
2023-01-10T13:35:15.305Z,4.85
2023-01-10T13:37:32.272Z,5.13
2023-01-10T13:39:50.538Z,5.15
2023-01-10T13:42:07.602Z,5.80
2023-01-10T13:44:24.929Z,4.93
2023-01-10T13:46:42.933Z,4.55
2023-01-10T13:48:59.961Z,4.35
2023-01-10T13:51:17.024Z,4.43
2023-01-10T13:53:34.222Z,4.05
2023-01-10T13:55:51.216Z,5.32
2023-01-10T13:58:09.174Z,4.70
2023-01-10T14:00:26.283Z,4.70
2023-01-10T14:02:43.661Z,4.10
2023-01-10T14:05:00.664Z,3.80
2023-01-10T14:07:17.638Z,4.32
2023-01-10T14:09:36.056Z,3.42
2023-01-10T14:11:54.059Z,2.95
2023-01-10T14:14:11.303Z,3.40
2023-01-10T14:16:28.283Z,3.10
2023-01-10T14:18:45.378Z,3.42
2023-01-10T14:21:02.586Z,3.38
2023-01-10T14:23:19.896Z,3.03
2023-01-10T14:25:37.001Z,3.58
2023-01-10T14:27:54.023Z,3.63
2023-01-10T14:30:10.947Z,4.15
2023-01-10T14:32:29.219Z,3.60
2023-01-10T14:34:46.180Z,3.90
2023-01-10T14:37:03.311Z,3.63
2023-01-10T14:39:20.533Z,4.00
2023-01-10T14:41:38.605Z,3.92
2023-01-10T14:43:55.661Z,3.80
2023-01-10T14:46:13.011Z,4.28
2023-01-10T14:48:30.039Z,4.75
2023-01-10T14:50:47.092Z,4.65
2023-01-10T14:53:04.107Z,4.70
2023-01-10T14:55:21.186Z,4.68
2023-01-10T14:57:38.228Z,4.55
2023-01-10T14:59:55.235Z,4.25
2023-01-10T15:02:12.248Z,4.00
2023-01-10T15:04:29.378Z,4.38
2023-01-10T15:06:46.456Z,5.05
2023-01-10T15:09:03.787Z,5.07
2023-01-10T15:11:20.805Z,4.82
2023-01-10T15:13:37.897Z,3.80
2023-01-10T15:15:55.000Z,4.22
2023-01-10T15:18:13.022Z,5.22
2023-01-10T15:20:29.884Z,4.65
2023-01-10T15:22:46.988Z,4.93
2023-01-10T15:25:03.970Z,4.40
2023-01-10T15:27:20.989Z,4.40
2023-01-10T15:29:38.024Z,5.07
2023-01-10T15:31:55.115Z,4.22
2023-01-10T15:34:12.426Z,5.05
2023-01-10T15:36:29.561Z,4.50
2023-01-10T15:38:46.828Z,4.30
2023-01-10T15:41:04.162Z,4.10
2023-01-10T15:43:23.442Z,3.50
2023-01-10T15:45:40.731Z,3.88
2023-01-10T15:47:57.672Z,4.75
2023-01-10T15:50:15.033Z,3.20
2023-01-10T15:52:32.252Z,3.30
2023-01-10T15:54:49.267Z,3.95
2023-01-10T15:57:06.360Z,3.50
2023-01-10T15:59:23.447Z,3.47
2023-01-10T16:01:41.919Z,4.25
2023-01-10T16:03:58.990Z,3.33
2023-01-10T16:06:15.976Z,3.35
2023-01-10T16:08:33.400Z,3.70
2023-01-10T16:10:50.422Z,3.38
2023-01-10T16:13:07.779Z,3.38
2023-01-10T16:15:24.737Z,3.63
2023-01-10T16:17:42.080Z,3.53
2023-01-10T16:19:59.473Z,3.15
2023-01-10T16:22:16.855Z,3.25
2023-01-10T16:24:33.751Z,3.92
2023-01-10T16:26:50.838Z,3.55
2023-01-10T16:29:07.831Z,3.60
2023-01-10T16:31:25.278Z,3.42
2023-01-10T16:33:42.707Z,3.45
2023-01-10T16:35:59.824Z,3.35
2023-01-10T16:38:16.815Z,3.50
2023-01-10T16:40:35.683Z,2.90
2023-01-10T16:42:54.617Z,3.53
2023-01-10T16:45:11.705Z,2.55
2023-01-10T16:47:28.735Z,2.97
2023-01-10T16:49:45.784Z,2.88
2023-01-10T16:52:02.746Z,3.00
2023-01-10T16:54:19.762Z,2.63
2023-01-10T16:56:37.800Z,2.92
2023-01-10T16:58:54.681Z,3.00
2023-01-10T17:01:12.751Z,2.97
2023-01-10T17:03:30.133Z,3.50
2023-01-10T17:05:47.240Z,3.22
2023-01-10T17:08:04.298Z,3.20
2023-01-10T17:10:23.442Z,3.30
2023-01-10T17:12:40.682Z,3.40
2023-01-10T17:14:58.097Z,2.95
2023-01-10T17:17:16.317Z,3.33
2023-01-10T17:19:33.754Z,2.78
2023-01-10T17:21:52.823Z,3.20
2023-01-10T17:24:09.790Z,3.38
2023-01-10T17:26:29.838Z,4.88
2023-01-10T17:28:46.798Z,4.07
2023-01-10T17:31:04.006Z,3.17
2023-01-10T17:33:20.989Z,2.95
2023-01-10T17:35:38.062Z,2.90
2023-01-10T17:37:55.152Z,2.92
2023-01-10T17:40:12.182Z,3.33
2023-01-10T17:42:29.225Z,3.13
2023-01-10T17:44:46.496Z,2.95
2023-01-10T17:47:03.512Z,3.15
2023-01-10T17:49:21.310Z,2.72
2023-01-10T17:51:39.632Z,2.72
2023-01-10T17:53:56.635Z,2.75
2023-01-10T17:56:13.904Z,2.53
2023-01-10T17:58:31.905Z,2.80
2023-01-10T18:00:49.319Z,2.60
2023-01-10T18:03:06.347Z,2.80
2023-01-10T18:05:23.584Z,2.40
2023-01-10T18:07:40.870Z,2.70
2023-01-10T18:09:57.913Z,2.75
2023-01-10T18:12:15.162Z,2.50
2023-01-10T18:14:32.419Z,2.55
2023-01-10T18:16:49.857Z,2.67
2023-01-10T18:19:07.842Z,2.45
2023-01-10T18:21:24.870Z,2.53
2023-01-10T18:23:41.798Z,2.38
2023-01-10T18:26:00.062Z,2.40
2023-01-10T18:28:18.760Z,2.95
2023-01-10T18:30:37.149Z,2.50
2023-01-10T18:32:54.134Z,2.67
2023-01-10T18:35:11.170Z,2.78
2023-01-10T18:37:29.230Z,2.28
2023-01-10T18:39:46.250Z,2.80
2023-01-10T18:42:03.300Z,2.80
2023-01-10T18:44:21.210Z,2.40
2023-01-10T18:46:38.161Z,2.30
2023-01-10T18:48:55.077Z,2.70
2023-01-10T18:51:12.943Z,2.90
2023-01-10T18:53:30.202Z,3.42
2023-01-10T18:55:47.215Z,3.40
2023-01-10T18:58:04.532Z,2.97
2023-01-10T19:00:21.498Z,3.65
2023-01-10T19:02:38.495Z,27.20
2023-01-10T19:04:55.520Z,11.27
2023-01-10T19:07:12.598Z,9.93
2023-01-10T19:09:29.716Z,4.57
2023-01-10T19:11:46.998Z,2.80
2023-01-10T19:14:05.004Z,1.90
2023-01-10T19:16:21.995Z,2.60
2023-01-10T19:18:39.239Z,2.05
2023-01-10T19:20:56.293Z,2.00
2023-01-10T19:23:13.512Z,1.70
2023-01-10T19:25:30.501Z,1.52
2023-01-10T19:27:47.853Z,1.50
2023-01-10T19:30:04.909Z,1.50
2023-01-10T19:32:21.954Z,1.52
2023-01-10T19:34:39.985Z,1.33
2023-01-10T19:36:56.913Z,1.38
2023-01-10T19:39:13.932Z,1.08
2023-01-10T19:41:30.911Z,1.40
2023-01-10T19:43:47.954Z,1.42
2023-01-10T19:46:05.317Z,1.70
2023-01-10T19:48:22.624Z,1.40
2023-01-10T19:50:39.548Z,1.75
2023-01-10T19:52:56.555Z,1.48
2023-01-10T19:55:13.799Z,1.30
2023-01-10T19:57:30.923Z,1.20
2023-01-10T19:59:48.920Z,1.15
2023-01-10T20:02:06.222Z,1.25
2023-01-10T20:04:23.230Z,1.35
2023-01-10T20:06:40.246Z,1.33
2023-01-10T20:08:58.228Z,1.08
2023-01-10T20:11:15.239Z,1.38
2023-01-10T20:13:32.634Z,1.13
2023-01-10T20:15:49.673Z,1.25
2023-01-10T20:18:06.963Z,1.10
2023-01-10T20:20:25.007Z,0.90
2023-01-10T20:22:42.052Z,0.93
2023-01-10T20:24:59.400Z,1.00
2023-01-10T20:27:16.681Z,1.00
2023-01-10T20:29:34.922Z,1.08
2023-01-10T20:31:52.975Z,1.05
2023-01-10T20:34:09.889Z,0.80
2023-01-10T20:36:26.941Z,0.90
2023-01-10T20:38:44.208Z,0.98
2023-01-10T20:41:01.206Z,1.02
2023-01-10T20:43:19.236Z,0.70
2023-01-10T20:45:36.550Z,1.17
2023-01-10T20:47:53.522Z,0.85
2023-01-10T20:50:10.551Z,1.00
2023-01-10T20:52:27.568Z,0.98
2023-01-10T20:54:44.630Z,0.88
2023-01-10T20:57:01.941Z,0.68
2023-01-10T20:59:18.951Z,1.20
2023-01-10T21:01:36.180Z,0.90
2023-01-10T21:03:53.358Z,0.93
2023-01-10T21:06:10.693Z,0.80
2023-01-10T21:08:27.922Z,0.60
2023-01-10T21:10:45.953Z,0.77
2023-01-10T21:13:02.897Z,0.70
2023-01-10T21:15:19.822Z,0.85
2023-01-10T21:17:37.149Z,0.82
2023-01-10T21:19:55.130Z,0.90
2023-01-10T21:22:12.132Z,0.93
2023-01-10T21:24:30.060Z,0.77
2023-01-10T21:26:47.286Z,0.90
2023-01-10T21:29:04.340Z,0.70
2023-01-10T21:31:21.444Z,0.63
2023-01-10T21:33:39.362Z,0.60
2023-01-10T21:35:56.360Z,0.68
2023-01-10T21:38:14.393Z,0.65
2023-01-10T21:40:31.453Z,0.70
2023-01-10T21:42:48.475Z,0.70
2023-01-10T21:45:05.437Z,0.63
2023-01-10T21:47:22.648Z,0.93
2023-01-10T21:49:39.932Z,0.60
2023-01-10T21:51:56.946Z,0.80
2023-01-10T21:54:14.167Z,0.80
2023-01-10T21:56:31.498Z,0.90
2023-01-10T21:58:48.512Z,0.90
2023-01-10T22:01:05.600Z,0.88
2023-01-10T22:03:22.680Z,1.00
2023-01-10T22:05:39.755Z,0.73
2023-01-10T22:07:56.781Z,0.70
2023-01-10T22:10:14.042Z,0.80
2023-01-10T22:12:31.144Z,0.80
2023-01-10T22:14:49.411Z,0.80
2023-01-10T22:17:07.415Z,0.95
2023-01-10T22:19:24.406Z,0.63
2023-01-10T22:21:41.395Z,0.90
2023-01-10T22:23:58.483Z,0.88
2023-01-10T22:26:15.509Z,1.02
2023-01-10T22:28:32.481Z,0.90
2023-01-10T22:30:49.528Z,0.90
2023-01-10T22:33:06.776Z,0.80
2023-01-10T22:35:23.755Z,0.80
2023-01-10T22:37:40.798Z,0.80
2023-01-10T22:39:57.990Z,0.85
2023-01-10T22:42:14.929Z,0.70
2023-01-10T22:44:32.265Z,0.90
2023-01-10T22:46:49.508Z,0.98
2023-01-10T22:49:06.533Z,0.80
2023-01-10T22:51:23.501Z,0.80
2023-01-10T22:53:40.566Z,0.80
2023-01-10T22:55:58.566Z,0.88
2023-01-10T22:58:15.601Z,1.10
2023-01-10T23:00:32.571Z,0.90
2023-01-10T23:02:49.605Z,0.75
2023-01-10T23:05:06.723Z,0.85
2023-01-10T23:07:23.646Z,0.80
2023-01-10T23:09:40.679Z,0.98
2023-01-10T23:11:57.719Z,0.95
2023-01-10T23:14:14.774Z,1.10
2023-01-10T23:16:31.751Z,1.15
2023-01-10T23:18:49.079Z,1.10
2023-01-10T23:21:06.072Z,1.13
2023-01-10T23:23:24.061Z,0.93
2023-01-10T23:25:41.362Z,0.85
2023-01-10T23:27:58.334Z,1.17
2023-01-10T23:30:15.268Z,1.00
2023-01-10T23:32:32.239Z,0.95
2023-01-10T23:34:49.299Z,1.10
2023-01-10T23:37:06.255Z,1.20
2023-01-10T23:39:23.506Z,1.40
2023-01-10T23:41:40.445Z,1.48
2023-01-10T23:43:57.755Z,1.40
2023-01-10T23:46:15.071Z,1.77
2023-01-10T23:48:32.183Z,2.20
2023-01-10T23:50:50.272Z,2.17
2023-01-10T23:53:08.642Z,2.35
2023-01-10T23:55:25.720Z,2.45
2023-01-10T23:57:42.970Z,2.10
